createdAt,value
2018-06-02T00:02:14.498Z,101003.34
2018-06-02T00:04:43.739Z,100997.28
2018-06-02T00:07:16.131Z,101005.22
2018-06-02T00:09:47.830Z,101004.47
2018-06-02T00:12:17.319Z,101006.64
2018-06-02T00:14:46.431Z,101008.70
2018-06-02T00:17:14.723Z,101005.51
2018-06-02T00:19:46.954Z,101008.72
2018-06-02T00:22:18.981Z,100866.13
2018-06-02T00:24:47.842Z,101007.48
2018-06-02T00:27:16.261Z,101003.86
2018-06-02T00:29:43.941Z,101001.91
2018-06-02T00:32:11.530Z,101003.72
2018-06-02T00:34:39.172Z,101003.78
2018-06-02T00:37:06.753Z,101001.09
2018-06-02T00:39:34.338Z,100980.88
2018-06-02T00:42:01.929Z,101007.81
2018-06-02T00:44:29.503Z,101002.42
2018-06-02T00:46:57.076Z,100998.31
2018-06-02T00:49:24.686Z,100997.75
2018-06-02T00:51:52.534Z,100993.95
2018-06-02T00:54:31.871Z,100995.40
2018-06-02T00:56:59.447Z,100994.52
2018-06-02T00:59:27.029Z,101001.47
2018-06-02T01:01:54.639Z,101001.95
2018-06-02T01:04:22.224Z,100999.48
2018-06-02T01:06:49.886Z,101007.33
2018-06-02T01:09:17.466Z,101003.16
2018-06-02T01:11:48.977Z,101008.42
2018-06-02T01:14:16.564Z,101014.47
2018-06-02T01:16:44.196Z,101013.55
2018-06-02T01:19:11.743Z,101012.52
2018-06-02T01:21:39.657Z,101007.00
2018-06-02T01:24:07.277Z,101008.98
2018-06-02T01:26:34.983Z,101019.80
2018-06-02T01:29:02.559Z,101015.96
2018-06-02T01:31:30.310Z,101014.35
2018-06-02T01:33:57.916Z,101007.55
2018-06-02T01:36:25.501Z,101005.66
2018-06-02T01:38:53.099Z,101011.17
2018-06-02T01:41:20.678Z,101015.11
2018-06-02T01:43:48.242Z,101011.25
2018-06-02T01:46:15.977Z,101018.03
2018-06-02T01:48:43.744Z,101016.16
2018-06-02T01:51:11.371Z,101013.03
2018-06-02T01:53:38.929Z,101016.05
2018-06-02T01:56:06.563Z,101016.42
2018-06-02T01:58:34.197Z,101013.34
2018-06-02T02:01:01.768Z,101020.63
2018-06-02T02:03:29.335Z,101015.31
2018-06-02T02:05:56.917Z,101007.41
2018-06-02T02:08:24.500Z,101005.44
2018-06-02T02:10:52.064Z,101012.86
2018-06-02T02:13:19.665Z,101009.87
2018-06-02T02:15:47.262Z,101008.02
2018-06-02T02:18:14.836Z,101001.96
2018-06-02T02:20:42.525Z,101002.14
2018-06-02T02:23:10.117Z,100998.06
2018-06-02T02:25:37.878Z,101000.05
2018-06-02T02:28:05.490Z,101002.66
2018-06-02T02:30:33.054Z,100998.05
2018-06-02T02:33:00.614Z,101004.88
2018-06-02T02:35:28.887Z,101005.42
2018-06-02T02:37:56.583Z,100997.38
2018-06-02T02:40:24.167Z,100990.84
2018-06-02T02:42:51.741Z,100991.33
2018-06-02T02:45:19.336Z,100997.59
2018-06-02T02:47:46.897Z,100994.89
2018-06-02T02:50:14.471Z,100998.11
2018-06-02T02:52:42.073Z,100998.09
2018-06-02T02:55:09.636Z,100993.66
2018-06-02T02:57:37.200Z,100991.91
2018-06-02T03:00:04.797Z,100993.97
2018-06-02T03:02:32.362Z,100993.97
2018-06-02T03:05:00.065Z,100939.09
2018-06-02T03:07:27.661Z,100990.95
2018-06-02T03:09:55.222Z,100996.48
2018-06-02T03:12:22.875Z,100989.52
2018-06-02T03:14:50.489Z,100988.06
2018-06-02T03:17:18.207Z,100987.44
2018-06-02T03:19:45.866Z,100997.75
2018-06-02T03:22:13.435Z,100996.64
2018-06-02T03:24:41.018Z,100996.16
2018-06-02T03:27:08.606Z,100997.55
2018-06-02T03:29:36.155Z,100999.94
2018-06-02T03:32:03.716Z,100998.07
2018-06-02T03:34:31.331Z,100996.36
2018-06-02T03:36:59.027Z,100998.92
2018-06-02T03:39:26.718Z,101004.42
2018-06-02T03:41:54.321Z,101005.02
2018-06-02T03:44:21.924Z,101008.56
2018-06-02T03:46:49.479Z,101014.34
2018-06-02T03:49:17.413Z,101013.80
2018-06-02T03:51:44.975Z,101012.63
2018-06-02T03:54:12.611Z,101012.28
2018-06-02T03:56:40.238Z,101012.41
2018-06-02T03:59:07.879Z,101015.58
2018-06-02T04:01:35.453Z,101016.57
2018-06-02T04:04:03.024Z,101014.80
2018-06-02T04:06:30.649Z,101015.62
2018-06-02T04:08:58.312Z,101016.45
2018-06-02T04:11:25.871Z,101014.95
2018-06-02T04:13:53.452Z,101005.73
2018-06-02T04:16:21.037Z,101009.55
2018-06-02T04:18:48.638Z,101008.58
2018-06-02T04:21:16.225Z,101003.61
2018-06-02T04:23:43.797Z,101003.22
2018-06-02T04:26:11.456Z,101002.61
2018-06-02T04:28:39.104Z,101001.55
2018-06-02T04:31:06.884Z,101005.50
2018-06-02T04:33:34.435Z,100994.85
2018-06-02T04:36:02.127Z,101002.72
2018-06-02T04:38:29.742Z,100995.92
2018-06-02T04:40:57.330Z,100993.03
2018-06-02T04:43:24.897Z,100990.14
2018-06-02T04:45:52.549Z,100988.20
2018-06-02T04:48:20.208Z,100989.34
2018-06-02T04:50:47.874Z,100991.73
2018-06-02T04:53:15.479Z,100985.95
2018-06-02T04:55:43.053Z,100983.01
2018-06-02T04:58:10.762Z,100985.35
2018-06-02T05:00:38.406Z,100978.45
2018-06-02T05:03:06.018Z,100983.38
2018-06-02T05:05:33.628Z,100990.59
2018-06-02T05:08:01.198Z,100982.70
2018-06-02T05:10:28.789Z,100985.92
2018-06-02T05:12:56.375Z,100987.97
2018-06-02T05:15:24.056Z,100988.95
2018-06-02T05:17:51.623Z,100983.77
2018-06-02T05:20:19.227Z,100985.08
2018-06-02T05:22:56.023Z,100983.34
2018-06-02T05:25:23.710Z,100985.39
2018-06-02T05:27:51.325Z,100985.98
2018-06-02T05:30:18.887Z,100981.98
2018-06-02T05:32:46.473Z,100980.01
2018-06-02T05:35:14.095Z,100985.63
2018-06-02T05:37:41.644Z,100989.50
2018-06-02T05:40:09.429Z,100983.75
2018-06-02T05:42:37.011Z,100987.64
2018-06-02T05:45:04.645Z,100988.56
2018-06-02T05:47:32.198Z,101000.72
2018-06-02T05:49:59.813Z,100994.83
2018-06-02T05:52:27.457Z,100996.06
2018-06-02T05:54:55.069Z,100969.59
2018-06-02T05:57:22.628Z,100990.27
2018-06-02T05:59:50.217Z,100978.83
2018-06-02T06:02:17.893Z,100982.50
2018-06-02T06:04:45.581Z,100989.81
2018-06-02T06:07:13.134Z,100977.38
2018-06-02T06:09:40.693Z,100975.23
2018-06-02T06:12:08.248Z,100979.00
2018-06-02T06:14:36.774Z,100974.09
2018-06-02T06:17:04.351Z,100974.50
2018-06-02T06:19:32.228Z,100971.77
2018-06-02T06:21:59.921Z,100969.25
2018-06-02T06:24:27.563Z,100963.88
2018-06-02T06:26:55.128Z,100969.06
2018-06-02T06:29:22.710Z,100964.48
2018-06-02T06:31:50.600Z,100968.64
2018-06-02T06:34:18.243Z,100967.02
2018-06-02T06:36:45.790Z,100969.48
2018-06-02T06:39:13.365Z,100965.84
2018-06-02T06:41:43.328Z,100967.95
2018-06-02T06:44:11.102Z,100965.88
2018-06-02T06:46:38.767Z,100961.68
2018-06-02T06:49:06.485Z,100960.63
2018-06-02T06:51:34.143Z,100966.31
2018-06-02T06:54:01.850Z,100957.20
2018-06-02T06:56:29.590Z,100958.52
2018-06-02T06:58:57.228Z,100954.70
2018-06-02T07:01:24.788Z,100946.91
2018-06-02T07:03:52.410Z,100943.81
2018-06-02T07:06:20.024Z,100942.14
2018-06-02T07:08:47.679Z,100939.14
2018-06-02T07:11:15.242Z,100940.56
2018-06-02T07:13:42.796Z,100948.05
2018-06-02T07:16:10.379Z,100943.44
2018-06-02T07:18:37.973Z,100942.30
2018-06-02T07:21:05.595Z,100943.31
2018-06-02T07:23:33.254Z,100947.31
2018-06-02T07:26:00.817Z,100951.42
2018-06-02T07:28:28.709Z,100951.07
2018-06-02T07:30:56.320Z,100951.16
2018-06-02T07:33:23.924Z,100950.27
2018-06-02T07:35:52.434Z,100956.40
2018-06-02T07:38:20.084Z,100951.23
2018-06-02T07:40:47.798Z,100966.77
2018-06-02T07:43:15.381Z,100944.05
2018-06-02T07:45:43.013Z,100955.37
2018-06-02T07:48:10.580Z,100941.75
2018-06-02T07:50:38.161Z,100939.38
2018-06-02T07:53:05.712Z,100948.45
2018-06-02T07:55:33.296Z,100944.06
2018-06-02T07:58:00.896Z,100950.70
2018-06-02T08:00:28.628Z,100948.05
2018-06-02T08:02:56.224Z,100940.23
2018-06-02T08:05:23.929Z,100941.69
2018-06-02T08:07:51.607Z,100940.47
2018-06-02T08:10:19.171Z,100937.86
2018-06-02T08:12:46.719Z,100923.20
2018-06-02T08:15:14.285Z,100947.12
2018-06-02T08:17:41.860Z,100945.98
2018-06-02T08:20:10.009Z,100933.11
2018-06-02T08:22:37.675Z,100942.50
2018-06-02T08:25:05.264Z,100935.49
2018-06-02T08:27:32.912Z,100929.48
2018-06-02T08:30:00.480Z,100939.69
2018-06-02T08:32:28.117Z,100931.71
2018-06-02T08:34:55.684Z,100928.33
2018-06-02T08:37:23.253Z,100927.91
2018-06-02T08:39:50.906Z,100935.03
2018-06-02T08:42:18.519Z,100927.70
2018-06-02T08:44:46.248Z,100931.38
2018-06-02T08:47:13.828Z,100936.33
2018-06-02T08:49:41.397Z,100932.14
2018-06-02T08:52:08.945Z,100933.03
2018-06-02T08:54:36.670Z,100929.11
2018-06-02T08:57:04.404Z,100927.03
2018-06-02T08:59:31.984Z,100934.38
2018-06-02T09:01:59.595Z,100934.27
2018-06-02T09:04:27.169Z,100923.09
2018-06-02T09:06:54.788Z,100925.08
2018-06-02T09:09:22.395Z,100922.03
2018-06-02T09:11:49.997Z,100924.32
2018-06-02T09:14:17.671Z,100924.50
2018-06-02T09:16:45.306Z,100928.37
2018-06-02T09:19:12.991Z,100927.75
2018-06-02T09:21:40.704Z,100911.70
2018-06-02T09:24:08.295Z,100927.81
2018-06-02T09:26:35.886Z,100918.92
2018-06-02T09:29:03.431Z,100916.94
2018-06-02T09:31:31.154Z,100918.07
2018-06-02T09:33:58.765Z,100922.19
2018-06-02T09:36:26.366Z,100919.61
2018-06-02T09:38:53.934Z,100920.50
2018-06-02T09:41:21.591Z,100909.62
2018-06-02T09:43:49.169Z,100911.34
2018-06-02T09:46:16.780Z,100923.00
2018-06-02T09:48:44.379Z,100918.45
2018-06-02T09:51:11.980Z,100913.18
2018-06-02T09:53:40.428Z,100915.20
2018-06-02T09:56:08.066Z,100920.31
2018-06-02T09:58:35.643Z,100907.95
2018-06-02T10:01:03.215Z,100908.09
2018-06-02T10:03:30.826Z,100906.34
2018-06-02T10:05:58.406Z,100903.23
2018-06-02T10:08:26.031Z,100896.55
2018-06-02T10:10:53.721Z,100905.59
2018-06-02T10:13:21.285Z,100902.66
2018-06-02T10:15:48.864Z,100901.87
2018-06-02T10:18:16.563Z,100895.70
2018-06-02T10:20:44.330Z,100903.15
2018-06-02T10:23:12.013Z,100900.48
2018-06-02T10:25:39.598Z,100900.67
2018-06-02T10:28:07.312Z,100905.18
2018-06-02T10:30:34.898Z,100893.30
2018-06-02T10:33:02.494Z,100904.44
2018-06-02T10:35:30.289Z,100897.03
2018-06-02T10:37:57.874Z,100900.05
2018-06-02T10:40:25.500Z,100901.29
2018-06-02T10:42:53.056Z,100906.09
2018-06-02T10:45:20.893Z,100901.78
2018-06-02T10:47:48.492Z,100895.31
2018-06-02T10:50:16.604Z,100889.66
2018-06-02T10:52:44.156Z,100889.55
2018-06-02T10:55:11.795Z,100880.44
2018-06-02T10:57:39.889Z,100889.20
2018-06-02T11:00:07.773Z,100885.78
2018-06-02T11:02:35.385Z,100882.75
2018-06-02T11:05:02.939Z,100885.34
2018-06-02T11:07:30.803Z,100879.96
2018-06-02T11:09:58.408Z,100881.78
2018-06-02T11:12:25.964Z,100880.11
2018-06-02T11:14:53.546Z,100862.98
2018-06-02T11:17:21.147Z,100872.97
2018-06-02T11:19:48.911Z,100877.27
2018-06-02T11:22:16.623Z,100874.02
2018-06-02T11:24:44.282Z,100868.87
2018-06-02T11:27:11.930Z,100859.52
2018-06-02T11:29:39.517Z,100856.59
2018-06-02T11:32:07.176Z,100862.36
2018-06-02T11:34:34.785Z,100858.08
2018-06-02T11:37:02.403Z,100865.89
2018-06-02T11:39:30.033Z,100867.40
2018-06-02T11:41:57.709Z,100865.80
2018-06-02T11:44:25.348Z,100873.73
2018-06-02T11:46:53.002Z,100875.84
2018-06-02T11:49:21.241Z,100864.55
2018-06-02T11:51:48.895Z,100865.56
2018-06-02T11:54:16.576Z,100832.48
2018-06-02T11:56:44.171Z,100857.00
2018-06-02T11:59:11.739Z,100856.00
2018-06-02T12:01:39.300Z,100844.13
2018-06-02T12:04:07.098Z,100855.66
2018-06-02T12:06:34.757Z,100854.50
2018-06-02T12:09:02.360Z,100845.05
2018-06-02T12:11:29.944Z,100851.58
2018-06-02T12:13:57.529Z,100852.07
2018-06-02T12:16:25.209Z,100843.77
2018-06-02T12:18:52.828Z,100848.38
2018-06-02T12:21:20.433Z,100843.55
2018-06-02T12:23:48.016Z,100839.86
2018-06-02T12:26:15.706Z,100839.16
2018-06-02T12:28:43.325Z,100837.25
2018-06-02T12:31:10.911Z,100824.08
2018-06-02T12:33:38.470Z,100830.34
2018-06-02T12:36:06.040Z,100829.13
2018-06-02T12:38:33.607Z,100828.55
2018-06-02T12:41:01.260Z,100822.81
2018-06-02T12:43:28.973Z,100817.45
2018-06-02T12:45:56.656Z,100814.74
2018-06-02T12:48:24.318Z,100820.16
2018-06-02T12:50:51.885Z,100810.23
2018-06-02T12:53:19.463Z,100809.28
2018-06-02T12:55:47.126Z,100814.13
2018-06-02T12:58:14.778Z,100812.45
2018-06-02T13:00:42.428Z,100801.59
2018-06-02T13:03:10.002Z,100810.50
2018-06-02T13:05:37.867Z,100813.02
2018-06-02T13:08:05.440Z,100807.01
2018-06-02T13:10:33.351Z,100802.56
2018-06-02T13:13:00.915Z,100799.59
2018-06-02T13:15:28.606Z,100813.96
2018-06-02T13:17:56.288Z,100803.16
2018-06-02T13:20:23.859Z,100801.17
2018-06-02T13:22:51.435Z,100799.27
2018-06-02T13:25:18.974Z,100791.05
2018-06-02T13:27:46.536Z,100800.17
2018-06-02T13:30:14.119Z,100798.83
2018-06-02T13:32:41.689Z,100799.08
2018-06-02T13:35:09.356Z,100796.87
2018-06-02T13:37:36.949Z,100798.75
2018-06-02T13:40:04.545Z,100784.71
2018-06-02T13:42:32.133Z,100787.09
2018-06-02T13:44:59.953Z,100784.89
2018-06-02T13:47:27.553Z,100783.03
2018-06-02T13:49:55.118Z,100784.60
2018-06-02T13:52:22.737Z,100779.02
2018-06-02T13:54:50.334Z,100779.27
2018-06-02T13:57:18.051Z,100773.30
2018-06-02T13:59:45.847Z,100770.13
2018-06-02T14:02:13.494Z,100771.25
2018-06-02T14:04:41.068Z,100776.89
2018-06-02T14:07:08.917Z,100769.91
2018-06-02T14:09:36.532Z,100772.00
2018-06-02T14:12:04.088Z,100762.95
2018-06-02T14:14:31.730Z,100767.55
2018-06-02T14:16:59.316Z,100771.05
2018-06-02T14:19:26.968Z,100766.69
2018-06-02T14:21:54.526Z,100765.00
2018-06-02T14:24:22.096Z,100763.53
2018-06-02T14:26:49.808Z,100760.84
2018-06-02T14:29:17.382Z,100760.61
2018-06-02T14:31:44.938Z,100747.57
2018-06-02T14:34:12.548Z,100747.22
2018-06-02T14:36:40.101Z,100760.64
2018-06-02T14:39:07.670Z,100752.04
2018-06-02T14:41:35.312Z,100750.97
2018-06-02T14:44:02.896Z,100741.41
2018-06-02T14:46:30.459Z,100743.91
2018-06-02T14:48:58.064Z,100744.86
2018-06-02T14:51:25.655Z,100732.75
2018-06-02T14:53:53.300Z,100739.67
2018-06-02T14:56:21.093Z,100729.45
2018-06-02T14:58:48.650Z,100743.91
2018-06-02T15:01:16.235Z,100738.44
2018-06-02T15:03:43.819Z,100740.72
2018-06-02T15:06:11.379Z,100740.64
2018-06-02T15:08:38.960Z,100741.16
2018-06-02T15:11:09.310Z,100738.19
2018-06-02T15:13:36.924Z,100740.19
2018-06-02T15:16:05.361Z,100738.09
2018-06-02T15:18:33.030Z,100747.07
2018-06-02T15:21:00.880Z,100732.73
2018-06-02T15:23:28.605Z,100738.32
2018-06-02T15:25:56.224Z,100730.84
2018-06-02T15:28:24.095Z,100732.75
2018-06-02T15:30:52.513Z,100744.05
2018-06-02T15:33:20.114Z,100748.66
2018-06-02T15:35:47.802Z,100756.01
2018-06-02T15:38:15.472Z,100751.35
2018-06-02T15:40:43.073Z,100753.48
2018-06-02T15:43:10.686Z,100751.11
2018-06-02T15:45:38.250Z,100741.34
2018-06-02T15:48:06.044Z,100742.77
2018-06-02T15:50:36.406Z,100741.66
2018-06-02T15:53:04.441Z,100746.86
2018-06-02T15:55:32.635Z,100750.72
2018-06-02T15:58:00.956Z,100747.05
2018-06-02T16:00:29.146Z,100753.70
2018-06-02T16:02:56.756Z,100744.63
2018-06-02T16:05:24.875Z,100750.98
2018-06-02T16:07:52.447Z,100727.99
2018-06-02T16:10:20.119Z,100749.83
2018-06-02T16:12:48.299Z,100749.50
2018-06-02T16:15:16.047Z,100744.27
2018-06-02T16:17:44.442Z,100747.00
2018-06-02T16:20:12.235Z,100749.97
2018-06-02T16:22:39.861Z,100752.77
2018-06-02T16:25:07.532Z,100756.38
2018-06-02T16:27:35.091Z,100752.05
2018-06-02T16:30:03.418Z,100746.89
2018-06-02T16:32:31.001Z,100744.02
2018-06-02T16:34:58.615Z,100740.83
2018-06-02T16:37:26.223Z,100743.53
2018-06-02T16:39:53.832Z,100744.83
2018-06-02T16:42:22.079Z,100750.31
2018-06-02T16:44:50.307Z,100753.62
2018-06-02T16:47:17.956Z,100753.73
2018-06-02T16:49:46.416Z,100752.36
2018-06-02T16:52:13.985Z,100752.63
2018-06-02T16:54:41.638Z,100752.73
2018-06-02T16:57:09.309Z,100752.81
2018-06-02T16:59:37.330Z,100751.77
2018-06-02T17:02:05.036Z,100755.16
2018-06-02T17:04:32.684Z,100754.89
2018-06-02T17:07:00.898Z,100760.70
2018-06-02T17:09:28.458Z,100746.52
2018-06-02T17:11:56.092Z,100753.23
2018-06-02T17:14:23.737Z,100756.17
2018-06-02T17:16:51.526Z,100752.73
2018-06-02T17:19:19.144Z,100758.09
2018-06-02T17:21:46.959Z,100756.09
2018-06-02T17:24:14.897Z,100761.19
2018-06-02T17:26:42.505Z,100758.63
2018-06-02T17:29:10.101Z,100752.13
2018-06-02T17:31:37.697Z,100757.50
2018-06-02T17:34:05.891Z,100750.16
2018-06-02T17:36:33.724Z,100757.81
2018-06-02T17:39:01.297Z,100754.78
2018-06-02T17:41:29.110Z,100754.13
2018-06-02T17:43:56.695Z,100754.03
2018-06-02T17:46:24.285Z,100755.28
2018-06-02T17:48:52.045Z,100753.06
2018-06-02T17:51:20.660Z,100758.37
2018-06-02T17:53:48.508Z,100759.78
2018-06-02T17:56:16.099Z,100756.44
2018-06-02T17:58:43.661Z,100767.01
2018-06-02T18:01:11.624Z,100753.23
2018-06-02T18:03:39.352Z,100764.83
2018-06-02T18:06:07.140Z,100757.86
2018-06-02T18:08:34.754Z,100762.20
2018-06-02T18:11:02.371Z,100767.88
2018-06-02T18:13:30.124Z,100768.67
2018-06-02T18:15:57.742Z,100767.71
2018-06-02T18:18:25.393Z,100772.93
2018-06-02T18:20:53.041Z,100770.61
2018-06-02T18:23:20.611Z,100770.82
2018-06-02T18:25:48.241Z,100773.63
2018-06-02T18:28:16.677Z,100778.02
2018-06-02T18:33:11.183Z,100787.13
2018-06-02T18:35:38.847Z,100790.33
2018-06-02T18:38:06.701Z,100789.85
2018-06-02T18:40:34.399Z,100786.05
2018-06-02T18:43:02.521Z,100790.23
2018-06-02T18:45:31.316Z,100789.24
2018-06-02T18:47:58.906Z,100788.50
2018-06-02T18:50:26.470Z,100786.47
2018-06-02T18:52:54.165Z,100794.86
2018-06-02T18:55:21.762Z,100799.74
2018-06-02T18:57:49.304Z,100799.83
2018-06-02T19:00:16.895Z,100795.03
2018-06-02T19:02:44.499Z,100799.15
2018-06-02T19:05:12.508Z,100799.06
2018-06-02T19:07:40.165Z,100803.34
2018-06-02T19:10:07.749Z,100800.06
2018-06-02T19:12:35.340Z,100807.43
2018-06-02T19:15:03.792Z,100808.45
2018-06-02T19:17:31.445Z,100800.66
2018-06-02T19:19:59.309Z,100797.11
2018-06-02T19:22:26.928Z,100804.62
2018-06-02T19:24:54.552Z,100802.27
2018-06-02T19:27:22.199Z,100802.76
2018-06-02T19:29:49.765Z,100795.95
2018-06-02T19:32:17.553Z,100801.77
2018-06-02T19:34:45.149Z,100798.59
2018-06-02T19:37:12.733Z,100799.39
2018-06-02T19:39:40.552Z,100805.06
2018-06-02T19:42:08.331Z,100800.23
2018-06-02T19:44:36.148Z,100805.92
2018-06-02T19:47:03.718Z,100808.21
2018-06-02T19:50:03.434Z,100810.29
2018-06-02T19:52:32.369Z,100822.16
2018-06-02T19:55:01.094Z,100824.48
2018-06-02T19:57:29.803Z,100819.16
2018-06-02T19:59:58.591Z,100825.48
2018-06-02T20:02:27.309Z,100829.47
2018-06-02T20:04:56.158Z,100826.03
2018-06-02T20:07:25.299Z,100825.25
2018-06-02T20:09:54.006Z,100835.58
2018-06-02T20:12:22.795Z,100840.20
2018-06-02T20:14:51.748Z,100838.16
2018-06-02T20:17:20.802Z,100833.05
2018-06-02T20:19:49.379Z,100849.66
2018-06-02T20:22:18.102Z,100848.90
2018-06-02T20:24:46.938Z,100854.00
2018-06-02T20:27:15.868Z,100851.72
2018-06-02T20:29:44.982Z,100857.24
2018-06-02T20:32:13.623Z,100860.05
2018-06-02T20:34:42.265Z,100858.16
2018-06-02T20:37:11.006Z,100865.22
2018-06-02T20:39:39.687Z,100872.44
2018-06-02T20:42:08.636Z,100867.03
2018-06-02T20:44:37.572Z,100861.92
2018-06-02T20:47:06.333Z,100868.06
2018-06-02T20:49:35.399Z,100871.98
2018-06-02T20:52:04.205Z,100870.36
2018-06-02T20:54:32.956Z,100837.20
2018-06-02T20:57:01.862Z,100869.91
2018-06-02T20:59:30.600Z,100872.77
2018-06-02T21:02:00.371Z,100875.92
2018-06-02T21:04:28.970Z,100879.12
2018-06-02T21:06:57.824Z,100873.92
2018-06-02T21:09:26.961Z,100875.75
2018-06-02T21:11:55.831Z,100873.78
2018-06-02T21:14:24.446Z,100873.92
2018-06-02T21:16:53.094Z,100879.34
2018-06-02T21:19:21.972Z,100879.55
2018-06-02T21:21:50.521Z,100885.02
2018-06-02T21:24:19.408Z,100889.38
2018-06-02T21:26:48.169Z,100880.11
2018-06-02T21:29:17.054Z,100890.07
2018-06-02T21:31:45.794Z,100898.20
2018-06-02T21:34:15.656Z,100900.58
2018-06-02T21:36:44.558Z,100903.18
2018-06-02T21:39:13.337Z,100900.35
2018-06-02T21:41:42.252Z,100906.95
2018-06-02T21:44:18.625Z,100909.32
2018-06-02T21:46:47.453Z,100908.55
2018-06-02T21:49:16.058Z,100905.27
2018-06-02T21:51:44.786Z,100905.75
2018-06-02T21:54:13.581Z,100902.05
2018-06-02T21:56:42.513Z,100898.59
2018-06-02T21:59:11.154Z,100903.11
2018-06-02T22:01:39.827Z,100919.38
2018-06-02T22:04:08.526Z,100917.33
2018-06-02T22:06:37.489Z,100911.70
2018-06-02T22:09:06.704Z,100908.24
2018-06-02T22:11:35.500Z,100910.31
2018-06-02T22:14:04.219Z,100910.42
2018-06-02T22:16:33.010Z,100915.16
2018-06-02T22:19:01.586Z,100916.36
2018-06-02T22:21:30.417Z,100917.33
2018-06-02T22:23:59.132Z,100921.61
2018-06-02T22:26:27.691Z,100924.16
2018-06-02T22:28:56.607Z,100925.66
2018-06-02T22:31:25.627Z,100920.63
2018-06-02T22:33:54.345Z,100925.68
2018-06-02T22:36:23.422Z,100921.69
2018-06-02T22:38:52.230Z,100927.50
2018-06-02T22:41:20.949Z,100917.98
2018-06-02T22:43:49.683Z,100917.53
2018-06-02T22:46:18.329Z,100927.74
2018-06-02T22:48:47.039Z,100923.88
2018-06-02T22:51:15.768Z,100927.98
2018-06-02T22:53:44.563Z,100921.97
2018-06-02T22:56:13.533Z,100918.73
2018-06-02T22:58:42.514Z,100916.55
2018-06-02T23:01:11.230Z,100924.06
2018-06-02T23:03:39.959Z,100915.39
2018-06-02T23:06:08.733Z,100929.41
2018-06-02T23:08:37.926Z,100922.63
2018-06-02T23:11:06.619Z,100919.40
2018-06-02T23:13:35.515Z,100908.89
2018-06-02T23:16:04.164Z,100916.50
2018-06-02T23:18:32.941Z,100907.60
2018-06-02T23:21:01.632Z,100915.20
2018-06-02T23:23:30.370Z,100900.95
2018-06-02T23:25:59.051Z,100894.83
2018-06-02T23:28:27.725Z,100896.03
2018-06-02T23:30:56.391Z,100908.22
2018-06-02T23:33:25.266Z,100922.22
2018-06-02T23:35:54.196Z,100932.73
2018-06-02T23:38:23.003Z,100935.37
2018-06-02T23:40:51.924Z,100934.52
2018-06-02T23:43:20.579Z,100930.55
2018-06-02T23:45:49.429Z,100927.91
2018-06-02T23:48:18.304Z,100927.52
2018-06-02T23:50:46.974Z,100929.55
2018-06-02T23:53:47.034Z,100923.41
2018-06-02T23:56:15.866Z,100922.56
2018-06-02T23:58:44.584Z,100914.46
